createdAt,value
2023-07-07T00:00:57.263Z,98238.19
2023-07-07T00:06:03.296Z,98236.06
2023-07-07T00:11:06.020Z,98236.25
2023-07-07T00:16:07.745Z,98236.59
2023-07-07T00:21:09.439Z,98234.69
2023-07-07T00:26:16.036Z,98228.00
2023-07-07T00:31:23.761Z,98229.00
2023-07-07T00:36:25.454Z,98238.59
2023-07-07T00:41:29.121Z,98242.66
2023-07-07T00:46:30.987Z,98242.34
2023-07-07T00:51:36.707Z,98244.44
2023-07-07T00:56:43.676Z,98243.13
2023-07-07T01:01:52.537Z,98255.97
2023-07-07T01:07:01.088Z,98255.00
2023-07-07T01:12:02.808Z,98253.38
2023-07-07T01:17:30.270Z,98258.56
2023-07-07T01:22:44.326Z,98249.63
2023-07-07T01:28:04.800Z,98254.66
2023-07-07T01:33:15.016Z,98244.75
2023-07-07T01:38:37.256Z,98243.44
2023-07-07T01:43:54.656Z,98235.78
2023-07-07T01:49:01.733Z,98242.44
2023-07-07T01:54:07.935Z,98243.41
2023-07-07T01:59:09.683Z,98248.25
2023-07-07T02:04:11.509Z,98250.03
2023-07-07T02:09:13.170Z,98251.81
2023-07-07T02:14:15.122Z,98246.59
2023-07-07T02:19:17.868Z,98248.06
2023-07-07T02:24:19.538Z,98247.38
2023-07-07T02:29:21.198Z,98247.06
2023-07-07T02:34:22.971Z,98243.97
2023-07-07T02:39:24.688Z,98249.47
2023-07-07T02:44:29.420Z,98243.13
2023-07-07T02:49:31.098Z,98238.53
2023-07-07T02:54:32.824Z,98238.38
2023-07-07T02:59:36.766Z,98247.78
2023-07-07T03:04:38.622Z,98247.78
2023-07-07T03:09:40.997Z,98241.78
2023-07-07T03:14:42.685Z,98256.84
2023-07-07T03:19:44.661Z,98252.66
2023-07-07T03:24:53.702Z,98262.06
2023-07-07T03:30:26.493Z,98268.69
2023-07-07T03:35:34.761Z,98268.69
2023-07-07T03:40:37.171Z,98270.81
2023-07-07T03:45:38.866Z,98268.09
2023-07-07T03:50:40.617Z,98267.81
2023-07-07T03:55:44.776Z,98267.53
2023-07-07T04:00:47.965Z,98279.91
2023-07-07T04:05:51.164Z,98279.59
2023-07-07T04:11:06.946Z,98283.72
2023-07-07T04:16:12.021Z,98285.34
2023-07-07T04:21:16.627Z,98295.13
2023-07-07T04:26:19.799Z,98300.84
2023-07-07T04:31:25.248Z,98298.72
2023-07-07T04:36:27.033Z,98294.53
2023-07-07T04:41:28.771Z,98294.50
2023-07-07T04:46:32.284Z,98303.72
2023-07-07T04:51:37.684Z,98304.78
2023-07-07T04:56:41.870Z,98306.97
2023-07-07T05:01:43.950Z,98307.75
2023-07-07T05:06:45.618Z,98310.03
2023-07-07T05:11:47.327Z,98320.16
2023-07-07T05:16:49.000Z,98319.72
2023-07-07T05:21:50.660Z,98322.00
2023-07-07T05:26:52.335Z,98323.50
2023-07-07T05:31:54.039Z,98329.66
2023-07-07T05:36:55.833Z,98323.63
2023-07-07T05:41:57.649Z,98326.06
2023-07-07T05:46:59.384Z,98333.00
2023-07-07T05:52:01.070Z,98343.47
2023-07-07T05:57:03.603Z,98345.94
2023-07-07T06:02:05.722Z,98343.09
2023-07-07T06:07:07.505Z,98349.50
2023-07-07T06:12:10.259Z,98353.78
2023-07-07T06:17:11.940Z,98353.06
2023-07-07T06:22:13.600Z,98356.47
2023-07-07T06:27:15.331Z,98359.41
2023-07-07T06:32:17.027Z,98369.06
2023-07-07T06:37:19.001Z,98363.69
2023-07-07T06:42:20.642Z,98368.97
2023-07-07T06:47:31.360Z,98374.25
2023-07-07T06:52:33.115Z,98376.66
2023-07-07T06:57:34.808Z,98383.56
2023-07-07T07:02:36.609Z,98383.41
2023-07-07T07:07:38.456Z,98385.56
2023-07-07T07:12:40.391Z,98383.88
2023-07-07T07:17:45.362Z,98389.00
2023-07-07T07:22:48.026Z,98369.66
2023-07-07T07:27:49.711Z,98374.97
2023-07-07T07:32:52.136Z,98375.84
2023-07-07T07:37:53.873Z,98385.16
2023-07-07T07:42:55.586Z,98382.06
2023-07-07T07:47:57.275Z,98383.56
2023-07-07T07:52:59.264Z,98380.78
2023-07-07T07:58:03.030Z,98387.59
2023-07-07T08:03:04.808Z,98386.84
2023-07-07T08:08:06.993Z,98389.81
2023-07-07T08:13:08.746Z,98396.81
2023-07-07T08:18:10.395Z,98389.59
2023-07-07T08:23:12.119Z,98392.22
2023-07-07T08:28:14.939Z,98389.97
2023-07-07T08:33:17.232Z,98393.28
2023-07-07T08:38:18.928Z,98397.63
2023-07-07T08:43:22.255Z,98392.88
2023-07-07T08:48:33.326Z,98395.84
2023-07-07T08:53:40.807Z,98398.91
2023-07-07T08:59:03.974Z,98401.03
2023-07-07T09:04:43.720Z,98398.28
2023-07-07T09:10:07.297Z,98404.00
2023-07-07T09:15:16.246Z,98399.78
2023-07-07T09:20:20.671Z,98405.59
2023-07-07T09:25:37.588Z,98404.72
2023-07-07T09:31:22.369Z,98415.53
2023-07-07T09:36:35.712Z,98408.44
2023-07-07T09:41:46.447Z,98410.75
2023-07-07T09:46:59.777Z,98405.38
2023-07-07T09:52:25.045Z,98410.19
2023-07-07T09:57:29.783Z,98407.56
2023-07-07T10:02:32.266Z,98404.91
2023-07-07T10:07:39.557Z,98401.44
2023-07-07T10:12:42.200Z,98405.16
2023-07-07T10:17:57.429Z,98393.63
2023-07-07T10:23:00.940Z,98399.00
2023-07-07T10:28:02.916Z,98391.25
2023-07-07T10:33:05.093Z,98392.22
2023-07-07T10:38:10.979Z,98391.84
2023-07-07T10:43:15.002Z,98389.78
2023-07-07T10:48:17.430Z,98389.06
2023-07-07T10:53:33.055Z,98393.91
2023-07-07T10:58:40.610Z,98391.69
2023-07-07T11:03:43.137Z,98387.31
2023-07-07T11:09:03.027Z,98387.50
2023-07-07T11:14:25.872Z,98384.03
2023-07-07T11:19:40.246Z,98377.94
2023-07-07T11:24:56.886Z,98377.75
2023-07-07T11:30:24.388Z,98376.31
2023-07-07T11:35:35.344Z,98367.19
2023-07-07T11:40:48.976Z,98380.72
2023-07-07T11:46:12.063Z,98369.66
2023-07-07T11:51:41.054Z,98371.09
2023-07-07T11:56:51.704Z,98361.75
2023-07-07T12:01:58.265Z,98368.81
2023-07-07T12:07:06.616Z,98361.78
2023-07-07T12:12:40.064Z,98349.72
2023-07-07T12:17:51.799Z,98349.56
2023-07-07T12:22:56.187Z,98340.75
2023-07-07T12:27:58.313Z,98341.28
2023-07-07T12:33:00.697Z,98335.41
2023-07-07T12:38:27.777Z,98339.97
2023-07-07T12:43:37.231Z,98332.19
2023-07-07T12:48:39.135Z,98321.69
2023-07-07T12:53:46.835Z,98331.72
2023-07-07T12:58:53.730Z,98328.41
2023-07-07T13:03:55.594Z,98326.34
2023-07-07T13:09:12.878Z,98328.47
2023-07-07T13:14:27.758Z,98316.25
2023-07-07T13:19:31.138Z,98313.06
2023-07-07T13:24:41.288Z,98312.56
2023-07-07T13:29:43.405Z,98318.25
2023-07-07T13:34:45.071Z,98320.59
2023-07-07T13:39:46.796Z,98322.81
2023-07-07T13:44:48.467Z,98315.41
2023-07-07T13:49:53.602Z,98302.88
2023-07-07T13:54:57.304Z,98300.50
2023-07-07T14:00:04.800Z,98286.69
2023-07-07T14:05:17.971Z,98297.84
2023-07-07T14:10:39.652Z,98289.16
2023-07-07T14:16:06.661Z,98292.34
2023-07-07T14:21:12.891Z,98295.50
2023-07-07T14:26:21.221Z,98289.75
2023-07-07T14:31:23.206Z,98291.31
2023-07-07T14:36:36.719Z,98295.03
2023-07-07T14:41:41.637Z,98293.63
2023-07-07T14:46:43.397Z,98287.06
2023-07-07T14:51:51.893Z,98281.16
2023-07-07T14:56:56.129Z,98271.06
2023-07-07T15:02:26.987Z,98271.13
2023-07-07T15:07:30.263Z,98273.31
2023-07-07T15:12:33.023Z,98262.13
2023-07-07T15:17:34.806Z,98267.81
2023-07-07T15:22:36.535Z,98277.72
2023-07-07T15:27:38.721Z,98271.34
2023-07-07T15:32:43.458Z,98266.41
2023-07-07T15:37:49.813Z,98263.41
2023-07-07T15:42:53.198Z,98256.56
2023-07-07T15:47:57.745Z,98257.06
2023-07-07T15:52:59.526Z,98243.72
2023-07-07T15:58:06.166Z,98241.38
2023-07-07T16:03:08.245Z,98234.94
2023-07-07T16:08:14.452Z,98212.63
2023-07-07T16:13:17.815Z,98204.81
2023-07-07T16:18:19.475Z,98206.34
2023-07-07T16:23:21.157Z,98195.72
2023-07-07T16:28:23.312Z,98192.09
2023-07-07T16:33:25.173Z,98190.31
2023-07-07T16:38:26.854Z,98191.53
2023-07-07T16:43:28.594Z,98182.31
2023-07-07T16:48:41.773Z,98196.16
2023-07-07T16:53:49.870Z,98183.13
2023-07-07T16:58:52.079Z,98187.66
2023-07-07T17:03:53.923Z,98179.75
2023-07-07T17:08:57.117Z,98180.97
2023-07-07T17:14:02.199Z,98186.97
2023-07-07T17:19:21.753Z,98190.53
2023-07-07T17:24:24.205Z,98193.78
2023-07-07T17:29:25.928Z,98185.78
2023-07-07T17:34:27.567Z,98182.56
2023-07-07T17:39:29.218Z,98191.38
2023-07-07T17:44:30.862Z,98194.78
2023-07-07T17:49:34.955Z,98192.03
2023-07-07T17:54:36.600Z,98196.97
2023-07-07T17:59:38.262Z,98196.41
2023-07-07T18:04:42.169Z,98205.56
2023-07-07T18:09:43.829Z,98205.44
2023-07-07T18:14:45.478Z,98204.56
2023-07-07T18:20:54.735Z,98202.09
2023-07-07T18:25:10.241Z,98201.94
2023-07-07T18:30:25.773Z,98207.97
2023-07-07T18:40:34.814Z,98207.19
2023-07-07T18:45:37.056Z,98211.31
2023-07-07T18:50:40.274Z,98205.44
2023-07-07T18:55:44.289Z,98201.63
2023-07-07T19:00:51.086Z,98205.75
2023-07-07T19:05:55.819Z,98215.72
2023-07-07T19:10:57.610Z,98213.34
2023-07-07T19:16:01.986Z,98224.31
2023-07-07T19:21:13.320Z,98223.47
2023-07-07T19:26:31.578Z,98229.25
2023-07-07T19:31:34.498Z,98227.88
2023-07-07T19:36:44.025Z,98233.47
2023-07-07T19:41:47.298Z,98239.31
2023-07-07T19:46:50.860Z,98235.38
2023-07-07T19:51:54.852Z,98230.69
2023-07-07T19:56:56.906Z,98234.09
2023-07-07T20:01:58.775Z,98234.69
2023-07-07T20:07:03.623Z,98232.03
2023-07-07T20:12:11.919Z,98248.69
2023-07-07T20:17:13.908Z,98244.38
2023-07-07T20:22:15.721Z,98246.97
2023-07-07T20:27:17.402Z,98249.66
2023-07-07T20:32:19.121Z,98248.19
2023-07-07T20:37:20.800Z,98253.78
2023-07-07T20:42:22.535Z,98259.13
2023-07-07T20:47:24.252Z,98263.22
2023-07-07T20:52:28.310Z,98271.09
2023-07-07T20:57:30.047Z,98268.91
2023-07-07T21:02:31.749Z,98265.47
2023-07-07T21:07:33.572Z,98274.59
2023-07-07T21:12:35.405Z,98274.19
2023-07-07T21:17:37.383Z,98268.31
2023-07-07T21:22:39.401Z,98262.44
2023-07-07T21:27:41.957Z,98265.03
2023-07-07T21:32:43.921Z,98260.78
2023-07-07T21:37:47.006Z,98262.97
2023-07-07T21:42:50.062Z,98260.69
2023-07-07T21:48:04.586Z,98262.06
2023-07-07T21:53:10.135Z,98259.16
2023-07-07T21:58:14.144Z,98253.53
2023-07-07T22:03:18.541Z,98250.84
2023-07-07T22:08:20.458Z,98247.53
2023-07-07T22:13:24.391Z,98250.75
2023-07-07T22:18:26.297Z,98248.09
2023-07-07T22:23:28.275Z,98238.28
2023-07-07T22:28:33.264Z,98236.31
2023-07-07T22:33:35.746Z,98231.41
2023-07-07T22:38:37.717Z,98225.88
2023-07-07T22:43:39.551Z,98224.19
2023-07-07T22:48:41.459Z,98218.91
2023-07-07T22:53:43.491Z,98225.34
2023-07-07T22:58:45.372Z,98213.75
2023-07-07T23:03:50.382Z,98203.56
2023-07-07T23:08:59.843Z,98209.72
2023-07-07T23:14:01.799Z,98206.72
2023-07-07T23:19:11.488Z,98202.66
2023-07-07T23:24:13.349Z,98196.72
2023-07-07T23:29:15.824Z,98201.34
2023-07-07T23:34:17.694Z,98200.78
2023-07-07T23:39:19.548Z,98197.00
2023-07-07T23:44:21.414Z,98190.88
2023-07-07T23:49:23.260Z,98196.03
2023-07-07T23:54:25.110Z,98198.16
2023-07-07T23:59:29.132Z,98192.41
